Forest fire From: 19-07-2018 20:00 Until: 20-07-2018 16:00 warning for: Forest fire Level: Yellow info button
suomi:
Metsäpalovaroitus on voimassa.

svenska:
Varning för skogsbrand gäller.

english:
A forest fire warning is in force. 

Extreme high temperature From: 19-07-2018 20:00 Until: 23:00 warning for: Extreme high temperature Level: Yellow info button
suomi:
Hellevaroitus: Lähivuorokauden aikana on odotettavissa tukalaa hellettä.

svenska:
Varning för värmebölja: Under det närmaste dygnet är den svåra hettan att vänta.

english:
Heat wave warning: Warm weather is expected during the coming 24 hours. 


Thunder radar more information blitzortung!


Löydät sääaseman tiedot myös:

European Weather Network

Finland Weather Exchange

Weather Underground

AWEKAS



Weather Underground säähistoriasivu

Päivittäin yhteenveto Huhtikuu 19, 2017 Yksiköt:  Englantilaiset    Metriset   Molemmat
« Edellinen Päivä
Seuraava Päivä »
Päivittäin Viikoittain Kuukausittain Vuosittain Mukautettu
  Korkea: Matala: Keskiarvo:
Lämpötila: TemperatureC °F -6.6 °F 1.3 °F
Kastepiste: DewpointC °F -7.8 °F -4.8 °F
Kosteus: Humidity % 40 % 65 %
Tuulen nopeus: WindSpeedKMH mph 0.0 mph 3.6 mph
Tuulenpuuska: WindSpeedGustKMH mph - -
Tuuli:- - SSW
Ilmanpaine: PressurehPa in 1021.6 in -
Sade: 0.0 in    
Historical Graphs
 
 
Taulukkotiedot Huhtikuu 19, 2017
Aika Lämpötila Kastepiste Ilmanpaine Tuuli Tuulen nopeus Tuulenpuuska Kosteus Sademäärä (tunneittain)
TemperatureC °F DewpointC °F PressurehPa in Calm     Humidity % HourlyPrecipMM in
00:00 -6.6 °F -7.8 °F 1030.7 in Calm     91 % 0.0 in
00:15 -6.3 °F -7.4 °F 1030.7 in Calm     92 % 0.0 in
00:30 -5.7 °F -6.9 °F 1030.7 in Calm   1.6 mph 91 % 0.0 in
00:45 -4.8 °F -6.4 °F 1030.7 in Calm   4.8 mph 89 % 0.0 in
01:00 -4.0 °F -5.8 °F 1030.7 in Calm   3.2 mph 87 % 0.0 in
01:15 -3.1 °F -5.3 °F 1030.7 in SW 1.6 mph 8.0 mph 85 % 0.0 in
01:30 -2.4 °F -5.0 °F 1030.7 in SSW 1.6 mph 6.4 mph 82 % 0.0 in
01:45 -2.0 °F -4.7 °F 1030.7 in Calm   4.8 mph 82 % 0.0 in
02:00 -1.3 °F -4.1 °F 1030.7 in SSW 1.6 mph 4.8 mph 81 % 0.0 in
02:15 -0.7 °F -3.9 °F 1030.7 in SSW 4.8 mph 12.9 mph 79 % 0.0 in
02:30 -0.2 °F -3.5 °F 1030.7 in SSW 4.8 mph 12.9 mph 78 % 0.0 in
02:45 0.4 °F -3.3 °F 1030.7 in SSW 4.8 mph 11.3 mph 76 % 0.0 in
03:00 0.8 °F -3.3 °F 1030.7 in South 4.8 mph 11.3 mph 74 % 0.0 in
03:15 1.2 °F -3.1 °F 1030.7 in SSW 3.2 mph 12.9 mph 73 % 0.0 in
03:30 1.7 °F -3.4 °F 1030.7 in SSW 4.8 mph 12.9 mph 69 % 0.0 in
03:45 2.1 °F -5.0 °F 1030.7 in SSW 6.4 mph 12.9 mph 60 % 0.0 in
04:00 2.3 °F -4.3 °F 1030.7 in SSW 6.4 mph 11.3 mph 62 % 0.0 in
04:15 2.7 °F -5.0 °F 1030.7 in SSW 4.8 mph 12.9 mph 57 % 0.0 in
04:30 3.1 °F -5.1 °F 1030.4 in SSW 6.4 mph 17.7 mph 55 % 0.0 in
04:45 3.5 °F -4.7 °F 1030.4 in WSW 6.4 mph 17.7 mph 55 % 0.0 in
05:00 3.8 °F -5.2 °F 1030.4 in SW 6.4 mph 17.7 mph 52 % 0.0 in
05:15 4.1 °F -4.6 °F 1030.4 in SSW 4.8 mph 12.9 mph 53 % 0.0 in
05:30 4.2 °F -4.8 °F 1030.4 in SSW 4.8 mph 12.9 mph 52 % 0.0 in
05:45 4.4 °F -4.6 °F 1030.0 in SW 6.4 mph 16.1 mph 52 % 0.0 in
06:00 4.9 °F -4.1 °F 1030.0 in SW 4.8 mph 14.5 mph 52 % 0.0 in
06:15 5.3 °F -4.3 °F 1030.0 in WSW 4.8 mph 14.5 mph 50 % 0.0 in
06:30 5.4 °F -4.4 °F 1030.0 in SW 6.4 mph 12.9 mph 49 % 0.0 in
06:45 5.3 °F -4.5 °F 1030.0 in SSW 8.0 mph 16.1 mph 49 % 0.0 in
07:00 5.6 °F -4.9 °F 1029.7 in SSW 6.4 mph 17.7 mph 47 % 0.0 in
07:15 5.8 °F -5.0 °F 1029.7 in SSW 6.4 mph 14.5 mph 46 % 0.0 in
07:30 5.8 °F -5.0 °F 1029.7 in SSW 4.8 mph 14.5 mph 46 % 0.0 in
07:45 5.9 °F -5.4 °F 1029.7 in South 6.4 mph 19.3 mph 44 % 0.0 in
08:00 5.9 °F -4.8 °F 1029.3 in SW 6.4 mph 11.3 mph 46 % 0.0 in
08:15 6.6 °F -5.7 °F 1029.3 in SW 4.8 mph 11.3 mph 41 % 0.0 in
08:30 6.2 °F -6.4 °F 1029.3 in SW 4.8 mph 12.9 mph 40 % 0.0 in
08:45 6.1 °F -6.5 °F 1029.3 in SW 4.8 mph 14.5 mph 40 % 0.0 in
09:00 6.0 °F -6.0 °F 1029.3 in SSW 4.8 mph 14.5 mph 42 % 0.0 in
09:15 5.9 °F -4.9 °F 1029.3 in West 4.8 mph 14.5 mph 46 % 0.0 in
09:30 5.8 °F -5.8 °F 1029.0 in SSW 6.4 mph 16.1 mph 43 % 0.0 in
09:45 5.6 °F -6.1 °F 1029.0 in SW 4.8 mph 19.3 mph 43 % 0.0 in
10:00 5.6 °F -5.5 °F 1029.0 in SW 6.4 mph 12.9 mph 45 % 0.0 in
10:15 5.5 °F -5.5 °F 1028.7 in SSW 6.4 mph 14.5 mph 45 % 0.0 in
10:30 5.5 °F -4.9 °F 1028.7 in West 4.8 mph 12.9 mph 47 % 0.0 in
10:45 5.4 °F -4.4 °F 1028.7 in SSW 4.8 mph 17.7 mph 49 % 0.0 in
11:00 5.2 °F -4.7 °F 1028.7 in SW 4.8 mph 17.7 mph 49 % 0.0 in
11:15 4.8 °F -4.5 °F 1028.7 in SSW 4.8 mph 17.7 mph 51 % 0.0 in
11:30 4.6 °F -4.2 °F 1028.7 in SW 4.8 mph 11.3 mph 53 % 0.0 in
11:45 4.1 °F -5.1 °F 1028.3 in SW 6.4 mph 20.9 mph 51 % 0.0 in
12:00 3.8 °F -5.1 °F 1028.3 in SSW 4.8 mph 11.3 mph 52 % 0.0 in
12:15 3.5 °F -5.4 °F 1028.3 in SSW 4.8 mph 11.3 mph 52 % 0.0 in
12:30 3.4 °F -5.3 °F 1028.0 in SSW 3.2 mph 12.9 mph 53 % 0.0 in
12:45 3.2 °F -5.5 °F 1028.0 in SSW 3.2 mph 9.7 mph 53 % 0.0 in
13:00 2.8 °F -5.3 °F 1028.0 in SSW 1.6 mph 9.7 mph 55 % 0.0 in
13:15 2.7 °F -5.2 °F 1027.7 in SW 3.2 mph 11.3 mph 56 % 0.0 in
13:30 2.5 °F -5.2 °F 1027.7 in SW 1.6 mph 6.4 mph 57 % 0.0 in
13:45 2.2 °F -5.3 °F 1027.7 in Calm     58 % 0.0 in
14:00 1.7 °F -5.3 °F 1027.7 in Calm   6.4 mph 60 % 0.0 in
14:15 1.3 °F -5.4 °F 1027.3 in SW 1.6 mph 6.4 mph 61 % 0.0 in
14:30 1.1 °F -5.6 °F 1027.3 in SW 1.6 mph 6.4 mph 61 % 0.0 in
14:45 0.8 °F -5.9 °F 1027.3 in Calm   1.6 mph 61 % 0.0 in
15:00 0.6 °F -5.9 °F 1027.3 in SW 3.2 mph 9.7 mph 62 % 0.0 in
15:15 0.3 °F -5.9 °F 1027.3 in SSW 1.6 mph 8.0 mph 63 % 0.0 in
15:30 0.0 °F -5.8 °F 1027.3 in Calm   3.2 mph 65 % 0.0 in
15:45 -0.3 °F -5.9 °F 1027.0 in SSW 1.6 mph 6.4 mph 66 % 0.0 in
16:00 -0.4 °F -6.2 °F 1027.0 in Calm   6.4 mph 65 % 0.0 in
16:15 -0.5 °F -6.3 °F 1027.0 in Calm   6.4 mph 65 % 0.0 in
16:30 -0.6 °F -6.2 °F 1026.6 in Calm   4.8 mph 66 % 0.0 in
16:45 -0.9 °F -6.1 °F 1026.6 in Calm   3.2 mph 68 % 0.0 in
17:00 -0.9 °F -5.9 °F 1026.6 in SW 3.2 mph 9.7 mph 69 % 0.0 in
17:15 -0.9 °F -5.9 °F 1026.6 in SSW 1.6 mph 9.7 mph 69 % 0.0 in
17:30 -1.0 °F -5.8 °F 1026.3 in SSW 3.2 mph 9.7 mph 70 % 0.0 in
17:45 -1.1 °F -5.3 °F 1026.3 in SSW 3.2 mph 9.7 mph 73 % 0.0 in
18:00 -1.1 °F -4.8 °F 1026.3 in SSW 3.2 mph 11.3 mph 76 % 0.0 in
18:15 -1.1 °F -4.2 °F 1026.0 in SW 4.8 mph 11.3 mph 79 % 0.0 in
18:30 -1.1 °F -4.0 °F 1026.0 in SSW 3.2 mph 9.7 mph 81 % 0.0 in
18:45 -1.1 °F -3.6 °F 1025.6 in SSW 3.2 mph 11.3 mph 83 % 0.0 in
19:00 -1.2 °F -3.6 °F 1025.6 in South 3.2 mph 8.0 mph 84 % 0.0 in
19:15 -1.2 °F -3.4 °F 1025.6 in SSW 4.8 mph 11.3 mph 85 % 0.0 in
19:30 -1.2 °F -3.3 °F 1025.3 in SSW 4.8 mph 14.5 mph 86 % 0.0 in
19:45 -1.2 °F -3.2 °F 1024.9 in SW 3.2 mph 9.7 mph 86 % 0.0 in
20:15 -1.2 °F -3.1 °F 1024.6 in SSW 3.2 mph 12.9 mph 87 % 0.0 in
20:30 -1.2 °F -3.1 °F 1024.3 in SSW 4.8 mph 11.3 mph 87 % 0.0 in
20:45 -1.2 °F -3.1 °F 1024.3 in SSW 6.4 mph 14.5 mph 87 % 0.0 in
21:15 -1.2 °F -3.3 °F 1023.6 in SSW 4.8 mph 11.3 mph 86 % 0.0 in
21:30 -1.3 °F -3.3 °F 1023.6 in SSW 4.8 mph 8.0 mph 86 % 0.0 in
21:45 -1.3 °F -3.3 °F 1023.2 in SSW 4.8 mph 11.3 mph 86 % 0.0 in
22:00 -1.4 °F -3.6 °F 1023.2 in SSW 3.2 mph 9.7 mph 85 % 0.0 in
22:15 -1.6 °F -3.8 °F 1022.6 in SSW 1.6 mph 8.0 mph 85 % 0.0 in
22:30 -1.8 °F -3.8 °F 1022.6 in South 3.2 mph 8.0 mph 86 % 0.0 in
22:45 -1.8 °F -4.0 °F 1022.2 in SSW 3.2 mph 9.7 mph 85 % 0.0 in
23:00 -1.8 °F -4.1 °F 1022.2 in SSW 3.2 mph 11.3 mph 84 % 0.0 in
23:15 -1.6 °F -4.0 °F 1021.9 in SSW 3.2 mph 12.9 mph 84 % 0.0 in
23:30 -1.4 °F -3.8 °F 1021.6 in South 3.2 mph 11.3 mph 84 % 0.0 in
23:45 -1.2 °F -3.6 °F 1021.6 in SSW 4.8 mph 11.3 mph 84 % 0.0 in
Esan sääasema
Terveisin Weather Underground - 2.75 mb

Alkuperäinen skripti  Jim McMurry - jmcmurry@mwt.net Sovitettu myös templatelle  Wim van der Kuil - Leuven-Template.eu

Laitteet joita käytämme:

Sääasema
Davis VP2

Sääasemaohjelma
Cumulus

Sääaseman tietokone
Asus EeePC

Palveluntarjoaja
Suncomet

Davis VP2

Cumulus

Asus EeePC

Suncomet